Wind Gap, Pennsylvania
Current Conditions -  °F | °C
As of 11:51 PM on Saturday 22 Nov 2014 (Local Time) from KABE Reporting Station
Scattered Clouds Scattered Clouds  
Wind Chill: 36°   Ceiling: Unl
Heat Index: 36°   Visibility: 10mi
Dew Point: 21°   Wind: 0mph
Humidity: 55%   Direction: NA
Pressure: 30.21"   Gusts: NA
Location:  40.85°N, 75.29°W
Report Text: KABE 230451Z 00000KT 10SM SCT110 02/M06 A3021 RMK AO2 SLP232 T00221061 400671094
Loading
Personal Weather Stations






























Interactive Weather Map New forecast layout! Learn more

10-Day Weather Forecast

Advertisements
Track Severe Weather on mobile